createdAt,value
2018-07-28T00:00:10.666Z,5.00
2018-07-28T00:00:43.749Z,5.00
2018-07-28T00:01:16.810Z,5.00
2018-07-28T00:01:49.906Z,5.00
2018-07-28T00:02:22.994Z,5.00
2018-07-28T00:02:56.040Z,5.00
2018-07-28T00:03:29.078Z,5.00
2018-07-28T00:04:02.146Z,5.00
2018-07-28T00:04:35.209Z,5.00
2018-07-28T00:05:09.155Z,5.00
2018-07-28T00:05:42.213Z,5.00
2018-07-28T00:06:15.235Z,5.00
2018-07-28T00:06:48.335Z,5.00
2018-07-28T00:07:21.411Z,5.00
2018-07-28T00:07:54.449Z,5.00
2018-07-28T00:08:27.601Z,5.00
2018-07-28T00:09:00.627Z,5.00
2018-07-28T00:09:33.749Z,5.00
2018-07-28T00:10:10.411Z,5.00
2018-07-28T00:10:43.513Z,5.30
2018-07-28T00:11:16.567Z,6.90
2018-07-28T00:11:49.647Z,5.70
2018-07-28T00:12:22.702Z,5.00
2018-07-28T00:12:55.765Z,5.00
2018-07-28T00:13:28.859Z,5.80
2018-07-28T00:14:02.026Z,6.00
2018-07-28T00:14:35.074Z,5.20
2018-07-28T00:15:10.086Z,5.00
2018-07-28T00:15:43.233Z,6.20
2018-07-28T00:16:16.299Z,7.30
2018-07-28T00:16:49.543Z,7.90
2018-07-28T00:17:22.641Z,10.60
2018-07-28T00:17:55.703Z,10.80
2018-07-28T00:18:28.769Z,10.50
2018-07-28T00:19:01.843Z,12.00
2018-07-28T00:19:34.909Z,11.80
2018-07-28T00:20:09.973Z,11.20
2018-07-28T00:20:43.003Z,10.50
2018-07-28T00:21:16.027Z,9.50
2018-07-28T00:21:49.039Z,9.80
2018-07-28T00:22:22.107Z,10.70
2018-07-28T00:22:55.149Z,10.40
2018-07-28T00:23:28.135Z,9.50
2018-07-28T00:24:01.151Z,11.20
2018-07-28T00:24:34.193Z,13.20
2018-07-28T00:25:09.717Z,15.60
2018-07-28T00:26:46.131Z,16.40
2018-07-28T00:27:19.148Z,15.90
2018-07-28T00:27:52.161Z,13.90
2018-07-28T00:28:25.136Z,14.30
2018-07-28T00:28:58.138Z,15.30
2018-07-28T00:29:31.151Z,16.40
2018-07-28T00:30:06.841Z,15.80
2018-07-28T00:30:39.927Z,15.00
2018-07-28T00:31:12.961Z,14.80
2018-07-28T00:31:45.994Z,14.30
2018-07-28T00:32:19.035Z,14.40
2018-07-28T00:32:52.091Z,14.40
2018-07-28T00:33:25.145Z,15.10
2018-07-28T00:33:58.182Z,14.60
2018-07-28T00:34:31.265Z,14.40
2018-07-28T00:35:04.359Z,14.60
2018-07-28T00:35:37.355Z,14.40
2018-07-28T00:36:10.905Z,15.00
2018-07-28T00:36:43.937Z,14.10
2018-07-28T00:37:16.977Z,13.50
2018-07-28T00:37:50.032Z,13.60
2018-07-28T00:38:23.069Z,14.20
2018-07-28T00:38:56.512Z,15.20
2018-07-28T00:39:29.561Z,16.10
2018-07-28T00:40:02.621Z,15.80
2018-07-28T00:40:35.660Z,15.50
2018-07-28T00:41:08.713Z,15.60
2018-07-28T00:41:42.078Z,15.40
2018-07-28T00:42:15.085Z,18.30
2018-07-28T00:42:48.087Z,19.40
2018-07-28T00:43:21.087Z,18.80
2018-07-28T00:43:54.119Z,19.60
2018-07-28T00:44:27.181Z,19.80
2018-07-28T00:45:00.253Z,20.40
2018-07-28T00:45:33.327Z,20.00
2018-07-28T00:46:06.412Z,19.80
2018-07-28T00:46:39.466Z,19.20
2018-07-28T00:47:14.235Z,19.00
2018-07-28T00:47:47.284Z,18.40
2018-07-28T00:48:20.329Z,18.60
2018-07-28T00:48:53.345Z,20.70
2018-07-28T00:49:26.481Z,21.60
2018-07-28T00:49:59.537Z,22.50
2018-07-28T00:50:32.591Z,22.80
2018-07-28T00:51:05.671Z,22.70
2018-07-28T00:51:38.729Z,23.20
2018-07-28T00:52:11.800Z,22.30
2018-07-28T00:52:44.867Z,24.30
2018-07-28T00:53:17.973Z,24.60
2018-07-28T00:53:51.043Z,28.70
2018-07-28T00:54:24.071Z,30.50
2018-07-28T00:54:57.091Z,32.10
2018-07-28T00:55:30.147Z,33.50
2018-07-28T00:56:03.665Z,32.70
2018-07-28T00:56:36.707Z,32.90
2018-07-28T00:57:09.723Z,33.50
2018-07-28T00:57:42.765Z,34.60
2018-07-28T00:58:15.740Z,35.20
2018-07-28T00:58:48.779Z,36.50
2018-07-28T00:59:21.819Z,37.50
2018-07-28T00:59:54.858Z,37.50
2018-07-28T01:00:27.891Z,37.90
2018-07-28T01:01:00.961Z,39.90
2018-07-28T01:01:34.000Z,41.70
2018-07-28T01:02:07.081Z,41.90
2018-07-28T01:02:40.139Z,43.10
2018-07-28T01:03:13.168Z,43.10
2018-07-28T01:03:46.181Z,44.00
2018-07-28T01:04:19.207Z,46.00
2018-07-28T01:04:52.220Z,46.40
2018-07-28T01:05:25.270Z,46.50
2018-07-28T01:05:58.251Z,46.30
2018-07-28T01:06:31.322Z,47.00
2018-07-28T01:07:04.512Z,47.80
2018-07-28T01:07:37.965Z,47.40
2018-07-28T01:08:10.963Z,48.10
2018-07-28T01:08:44.522Z,47.80
2018-07-28T01:09:17.548Z,48.50
2018-07-28T01:09:50.935Z,49.30
2018-07-28T01:10:24.035Z,49.70
2018-07-28T01:10:57.121Z,50.60
2018-07-28T01:11:30.201Z,49.20
2018-07-28T01:12:03.252Z,49.50
2018-07-28T01:12:36.281Z,50.00
2018-07-28T01:13:09.411Z,50.10
2018-07-28T01:13:42.393Z,49.60
2018-07-28T01:14:15.398Z,50.50
2018-07-28T01:14:48.429Z,51.00
2018-07-28T01:15:21.476Z,50.50
2018-07-28T01:15:54.515Z,50.50
2018-07-28T01:16:27.535Z,52.00
2018-07-28T01:17:00.588Z,51.70
2018-07-28T01:17:33.651Z,52.70
2018-07-28T01:18:06.740Z,52.90
2018-07-28T01:18:39.825Z,52.20
2018-07-28T01:19:12.921Z,51.40
2018-07-28T01:19:45.960Z,50.50
2018-07-28T01:20:19.046Z,50.50
2018-07-28T01:20:52.195Z,51.30
2018-07-28T01:21:25.245Z,51.30
2018-07-28T01:21:58.252Z,50.60
2018-07-28T01:22:31.334Z,51.20
2018-07-28T01:23:04.381Z,50.60
2018-07-28T01:23:37.402Z,50.60
2018-07-28T01:24:10.471Z,51.20
2018-07-28T01:24:43.507Z,50.40
2018-07-28T01:25:16.544Z,50.10
2018-07-28T01:25:49.873Z,50.30
2018-07-28T01:26:22.919Z,49.80
2018-07-28T01:26:55.985Z,49.30
2018-07-28T01:27:29.053Z,48.70
2018-07-28T01:28:02.101Z,49.00
2018-07-28T01:28:35.193Z,48.80
2018-07-28T01:29:16.507Z,48.70
2018-07-28T01:29:49.505Z,48.60
2018-07-28T01:30:30.251Z,48.70
2018-07-28T01:31:03.351Z,48.70
2018-07-28T01:31:36.401Z,48.30
2018-07-28T01:32:09.373Z,47.90
2018-07-28T01:32:42.405Z,47.80
2018-07-28T01:33:15.441Z,47.80
2018-07-28T01:33:48.477Z,48.60
2018-07-28T01:34:21.483Z,47.60
2018-07-28T01:34:54.491Z,47.00
2018-07-28T01:35:27.789Z,46.60
2018-07-28T01:36:00.831Z,46.20
2018-07-28T01:36:33.899Z,46.40
2018-07-28T01:37:06.883Z,46.50
2018-07-28T01:37:39.893Z,45.90
2018-07-28T01:38:12.927Z,45.30
2018-07-28T01:38:45.931Z,44.80
2018-07-28T01:39:18.950Z,45.00
2018-07-28T01:39:51.975Z,45.20
2018-07-28T01:40:25.017Z,44.60
2018-07-28T01:40:58.005Z,45.20
2018-07-28T01:41:31.067Z,45.00
2018-07-28T01:42:04.129Z,44.70
2018-07-28T01:42:37.129Z,44.40
2018-07-28T01:43:10.169Z,43.70
2018-07-28T01:43:43.199Z,45.10
2018-07-28T01:44:16.241Z,44.70
2018-07-28T01:44:49.264Z,44.70
2018-07-28T01:45:22.287Z,45.20
2018-07-28T01:45:55.311Z,44.30
2018-07-28T01:46:28.302Z,44.50
2018-07-28T01:47:01.297Z,44.50
2018-07-28T01:47:34.351Z,44.00
2018-07-28T01:48:07.411Z,44.10
2018-07-28T01:48:40.455Z,44.60
2018-07-28T01:49:13.529Z,44.20
2018-07-28T01:49:46.525Z,44.10
2018-07-28T01:50:19.582Z,44.70
2018-07-28T01:50:52.663Z,44.80
2018-07-28T01:51:25.736Z,43.90
2018-07-28T01:51:58.765Z,42.80
2018-07-28T01:52:31.815Z,43.90
2018-07-28T01:53:04.979Z,44.30
2018-07-28T01:53:38.096Z,43.20
2018-07-28T01:54:11.121Z,42.30
2018-07-28T01:54:44.147Z,42.30
2018-07-28T01:55:17.173Z,42.40
2018-07-28T01:55:50.207Z,42.60
2018-07-28T01:56:23.199Z,42.80
2018-07-28T01:56:56.223Z,43.10
2018-07-28T01:57:29.257Z,42.90
2018-07-28T01:58:02.306Z,42.90
2018-07-28T01:58:35.347Z,42.70
2018-07-28T01:59:08.313Z,42.00
2018-07-28T01:59:41.360Z,41.50
2018-07-28T02:00:14.372Z,41.80
2018-07-28T02:00:47.335Z,41.20
2018-07-28T02:01:20.352Z,41.80
2018-07-28T02:01:53.293Z,41.20
2018-07-28T02:02:26.389Z,40.80
2018-07-28T02:02:59.415Z,40.80
2018-07-28T02:03:32.875Z,40.20
2018-07-28T02:04:05.901Z,40.40
2018-07-28T02:04:38.961Z,39.80
2018-07-28T02:05:12.050Z,40.00
2018-07-28T02:05:45.078Z,39.20
2018-07-28T02:06:18.093Z,38.90
2018-07-28T02:06:51.137Z,39.40
2018-07-28T02:07:24.194Z,39.40
2018-07-28T02:07:57.271Z,39.00
2018-07-28T02:08:30.273Z,39.20
2018-07-28T02:09:05.742Z,38.90
2018-07-28T02:09:38.758Z,38.70
2018-07-28T02:10:11.815Z,38.60
2018-07-28T02:10:44.823Z,38.10
2018-07-28T02:11:17.947Z,38.10
2018-07-28T02:11:50.981Z,38.90
2018-07-28T02:12:24.071Z,38.20
2018-07-28T02:12:57.095Z,38.60
2018-07-28T02:13:30.143Z,37.90
2018-07-28T02:14:03.309Z,37.80
2018-07-28T02:14:36.374Z,37.60
2018-07-28T02:15:09.483Z,37.10
2018-07-28T02:15:42.579Z,36.40
2018-07-28T02:16:15.621Z,35.50
2018-07-28T02:16:48.634Z,35.10
2018-07-28T02:17:21.716Z,34.50
2018-07-28T02:17:54.713Z,34.00
2018-07-28T02:18:27.721Z,33.80
2018-07-28T02:19:00.781Z,33.60
2018-07-28T02:19:33.835Z,33.50
2018-07-28T02:20:07.616Z,33.20
2018-07-28T02:20:40.668Z,32.80
2018-07-28T02:21:13.733Z,32.80
2018-07-28T02:21:46.776Z,32.70
2018-07-28T02:22:19.837Z,32.70
2018-07-28T02:22:52.887Z,33.20
2018-07-28T02:23:25.907Z,34.40
2018-07-28T02:23:58.999Z,35.10
2018-07-28T02:24:32.058Z,35.50
2018-07-28T02:25:07.423Z,34.80
2018-07-28T02:25:40.487Z,34.60
2018-07-28T02:26:13.535Z,34.70
2018-07-28T02:26:46.527Z,35.50
2018-07-28T02:27:19.527Z,35.10
2018-07-28T02:27:52.555Z,35.30
2018-07-28T02:28:25.607Z,35.60
2018-07-28T02:28:58.641Z,35.60
2018-07-28T02:29:31.644Z,36.10
2018-07-28T02:30:05.307Z,35.40
2018-07-28T02:30:38.361Z,34.50
2018-07-28T02:31:11.388Z,34.00
2018-07-28T02:31:44.441Z,34.50
2018-07-28T02:32:17.496Z,33.90
2018-07-28T02:32:50.522Z,33.40
2018-07-28T02:33:23.598Z,33.50
2018-07-28T02:33:56.619Z,33.20
2018-07-28T02:34:29.641Z,33.00
2018-07-28T02:35:02.740Z,33.10
2018-07-28T02:35:35.816Z,32.80
2018-07-28T02:36:08.872Z,32.70
2018-07-28T02:36:42.185Z,33.00
2018-07-28T02:37:15.213Z,33.80
2018-07-28T02:37:48.244Z,35.20
2018-07-28T02:38:21.318Z,35.00
2018-07-28T02:38:54.424Z,35.00
2018-07-28T02:39:27.482Z,34.60
2018-07-28T02:40:00.601Z,34.40
2018-07-28T02:40:33.726Z,34.00
2018-07-28T02:41:06.719Z,33.60
2018-07-28T02:41:40.323Z,33.20
2018-07-28T02:42:13.340Z,32.90
2018-07-28T02:42:46.356Z,32.50
2018-07-28T02:43:19.383Z,32.40
2018-07-28T02:43:52.405Z,32.40
2018-07-28T02:44:25.463Z,32.70
2018-07-28T02:44:58.464Z,32.70
2018-07-28T02:45:31.500Z,33.00
2018-07-28T02:46:04.759Z,32.70
2018-07-28T02:46:38.211Z,32.70
2018-07-28T02:47:11.232Z,32.50
2018-07-28T02:47:44.271Z,32.50
2018-07-28T02:48:17.287Z,32.90
2018-07-28T02:48:50.301Z,33.20
2018-07-28T02:49:23.360Z,33.20
2018-07-28T02:49:56.349Z,33.20
2018-07-28T02:50:29.404Z,33.40
2018-07-28T02:51:02.438Z,33.60
2018-07-28T02:51:35.485Z,33.80
2018-07-28T02:52:08.466Z,33.90
2018-07-28T02:52:41.518Z,33.60
2018-07-28T02:53:14.568Z,33.60
2018-07-28T02:53:47.645Z,34.30
2018-07-28T02:54:20.670Z,34.90
2018-07-28T02:54:53.807Z,34.40
2018-07-28T02:55:26.826Z,34.00
2018-07-28T02:55:59.876Z,33.70
2018-07-28T02:56:32.879Z,33.60
2018-07-28T02:57:05.900Z,33.50
2018-07-28T02:57:39.005Z,33.50
2018-07-28T02:58:12.022Z,33.90
2018-07-28T02:58:45.027Z,34.20
2018-07-28T02:59:17.993Z,34.20
2018-07-28T02:59:51.300Z,34.20
2018-07-28T03:00:24.433Z,34.20
2018-07-28T03:00:57.436Z,34.30
2018-07-28T03:01:30.464Z,34.10
2018-07-28T03:02:03.607Z,33.80
2018-07-28T03:02:36.616Z,33.60
2018-07-28T03:03:09.630Z,33.30
2018-07-28T03:03:42.637Z,33.30
2018-07-28T03:04:15.700Z,33.10
2018-07-28T03:04:48.732Z,33.10
2018-07-28T03:05:21.806Z,33.00
2018-07-28T03:05:54.798Z,32.80
2018-07-28T03:06:27.853Z,32.40
2018-07-28T03:07:00.878Z,32.50
2018-07-28T03:07:33.914Z,32.40
2018-07-28T03:08:07.789Z,32.40
2018-07-28T03:08:40.786Z,32.30
2018-07-28T03:09:13.942Z,32.20
2018-07-28T03:09:46.978Z,32.00
2018-07-28T03:10:20.016Z,31.80
2018-07-28T03:10:53.086Z,31.50
2018-07-28T03:11:26.152Z,31.30
2018-07-28T03:11:59.186Z,31.30
2018-07-28T03:12:32.235Z,31.10
2018-07-28T03:13:05.312Z,31.00
2018-07-28T03:13:38.343Z,31.00
2018-07-28T03:14:11.352Z,31.20
2018-07-28T03:14:44.396Z,31.40
2018-07-28T03:15:30.839Z,31.10
2018-07-28T03:16:11.162Z,31.00
2018-07-28T03:16:44.204Z,30.70
2018-07-28T03:17:17.286Z,31.00
2018-07-28T03:17:50.329Z,31.10
2018-07-28T03:18:23.350Z,31.30
2018-07-28T03:18:57.023Z,31.10
2018-07-28T03:19:30.110Z,31.10
2018-07-28T03:20:03.252Z,31.00
2018-07-28T03:20:36.332Z,30.90
2018-07-28T03:21:09.339Z,30.80
2018-07-28T03:21:42.355Z,30.70
2018-07-28T03:22:15.378Z,30.90
2018-07-28T03:22:48.388Z,31.00
2018-07-28T03:23:21.400Z,31.60
2018-07-28T03:23:54.658Z,32.30
2018-07-28T03:24:27.730Z,32.60
2018-07-28T03:25:00.728Z,32.90
2018-07-28T03:25:33.736Z,33.30
2018-07-28T03:26:06.826Z,33.60
2018-07-28T03:26:39.829Z,33.60
2018-07-28T03:27:12.864Z,33.30
2018-07-28T03:27:45.954Z,33.50
2018-07-28T03:28:18.996Z,33.50
2018-07-28T03:28:51.982Z,33.60
2018-07-28T03:29:24.951Z,33.60
2018-07-28T03:29:58.038Z,33.60
2018-07-28T03:30:31.057Z,33.70
2018-07-28T03:31:04.088Z,33.60
2018-07-28T03:31:37.081Z,33.50
2018-07-28T03:32:10.108Z,33.30
2018-07-28T03:32:43.083Z,33.20
2018-07-28T03:33:16.126Z,33.20
2018-07-28T03:33:49.338Z,33.00
2018-07-28T03:34:22.339Z,33.00
2018-07-28T03:34:55.287Z,32.90
2018-07-28T03:35:28.224Z,32.90
2018-07-28T03:36:01.191Z,32.80
2018-07-28T03:36:34.201Z,32.60
2018-07-28T03:37:07.227Z,32.30
2018-07-28T03:37:40.240Z,32.00
2018-07-28T03:38:13.204Z,31.90
2018-07-28T03:38:46.551Z,31.50
2018-07-28T03:39:19.588Z,31.80
2018-07-28T03:39:53.279Z,32.90
2018-07-28T03:40:26.331Z,33.30
2018-07-28T03:40:59.335Z,34.40
2018-07-28T03:41:32.293Z,34.30
2018-07-28T03:42:05.277Z,34.00
2018-07-28T03:42:38.323Z,34.60
2018-07-28T03:43:11.330Z,33.80
2018-07-28T03:43:44.347Z,34.00
2018-07-28T03:44:17.393Z,33.20
2018-07-28T03:44:50.477Z,33.10
2018-07-28T03:45:23.513Z,33.60
2018-07-28T03:45:56.523Z,33.90
2018-07-28T03:46:29.569Z,34.10
2018-07-28T03:47:02.568Z,33.50
2018-07-28T03:47:35.747Z,33.50
2018-07-28T03:48:08.799Z,33.50
2018-07-28T03:48:41.777Z,33.10
2018-07-28T03:49:14.862Z,32.70
2018-07-28T03:49:47.855Z,32.90
2018-07-28T03:50:20.915Z,33.20
2018-07-28T03:50:55.146Z,33.00
2018-07-28T03:51:28.151Z,32.80
2018-07-28T03:52:01.215Z,32.30
2018-07-28T03:52:34.255Z,31.50
2018-07-28T03:53:07.306Z,31.00
2018-07-28T03:53:40.463Z,30.00
2018-07-28T03:54:13.455Z,29.40
2018-07-28T03:54:46.456Z,29.00
2018-07-28T03:55:19.464Z,28.60
2018-07-28T03:55:52.521Z,28.30
2018-07-28T03:56:25.595Z,28.10
2018-07-28T03:56:58.625Z,27.40
2018-07-28T03:57:31.691Z,26.70
2018-07-28T03:58:04.757Z,26.00
2018-07-28T03:58:37.711Z,25.60
2018-07-28T03:59:10.718Z,25.20
2018-07-28T03:59:43.918Z,24.50
2018-07-28T04:00:16.989Z,24.10
2018-07-28T04:00:50.051Z,23.90
2018-07-28T04:01:23.069Z,24.10
2018-07-28T04:01:56.129Z,23.60
2018-07-28T04:02:29.151Z,23.10
2018-07-28T04:03:02.169Z,22.40
2018-07-28T04:03:35.289Z,22.40
2018-07-28T04:04:08.338Z,22.60
2018-07-28T04:04:41.363Z,22.60
2018-07-28T04:05:14.419Z,22.10
2018-07-28T04:05:47.431Z,22.00
2018-07-28T04:06:20.459Z,22.10
2018-07-28T04:06:53.457Z,21.40
2018-07-28T04:07:26.519Z,21.70
2018-07-28T04:07:59.567Z,21.90
2018-07-28T04:08:32.689Z,21.80
2018-07-28T04:09:07.639Z,20.00
2018-07-28T04:09:40.651Z,20.60
2018-07-28T04:10:13.619Z,21.60
2018-07-28T04:10:46.633Z,22.80
2018-07-28T04:11:19.841Z,23.10
2018-07-28T04:11:52.869Z,23.20
2018-07-28T04:12:26.005Z,22.90
2018-07-28T04:12:59.013Z,22.00
2018-07-28T04:13:32.027Z,21.30
2018-07-28T04:14:05.112Z,21.20
2018-07-28T04:14:38.129Z,21.60
2018-07-28T04:15:12.494Z,21.60
2018-07-28T04:15:45.483Z,20.80
2018-07-28T04:16:18.533Z,20.10
2018-07-28T04:16:51.559Z,20.30
2018-07-28T04:17:24.597Z,20.60
2018-07-28T04:17:57.643Z,20.20
2018-07-28T04:18:30.689Z,20.50
2018-07-28T04:19:03.875Z,20.30
2018-07-28T04:19:36.894Z,20.30
2018-07-28T04:20:09.911Z,20.30
2018-07-28T04:20:42.938Z,20.00
2018-07-28T04:21:15.981Z,19.70
2018-07-28T04:21:49.031Z,19.30
2018-07-28T04:22:22.109Z,19.30
2018-07-28T04:22:55.339Z,19.00
2018-07-28T04:23:28.343Z,18.90
2018-07-28T04:24:01.351Z,18.20
2018-07-28T04:24:34.351Z,18.00
2018-07-28T04:25:07.425Z,17.80
2018-07-28T04:25:40.465Z,17.60
2018-07-28T04:26:13.447Z,18.80
2018-07-28T04:26:46.466Z,21.00
2018-07-28T04:27:19.471Z,23.00
2018-07-28T04:27:52.481Z,24.10
2018-07-28T04:28:25.838Z,24.70
2018-07-28T04:28:58.937Z,25.70
2018-07-28T04:29:31.965Z,24.90
2018-07-28T04:30:05.579Z,25.30
2018-07-28T04:30:38.605Z,27.50
2018-07-28T04:31:11.646Z,27.20
2018-07-28T04:31:44.653Z,26.20
2018-07-28T04:32:17.736Z,26.80
2018-07-28T04:32:50.747Z,27.80
2018-07-28T04:33:23.731Z,28.70
2018-07-28T04:33:56.698Z,28.60
2018-07-28T04:34:29.710Z,28.40
2018-07-28T04:35:02.787Z,27.80
2018-07-28T04:35:35.840Z,27.30
2018-07-28T04:36:08.816Z,26.70
2018-07-28T04:36:41.829Z,26.30
2018-07-28T04:37:14.851Z,25.40
2018-07-28T04:37:47.864Z,25.60
2018-07-28T04:38:20.855Z,25.50
2018-07-28T04:38:53.874Z,25.80
2018-07-28T04:39:26.898Z,25.80
2018-07-28T04:39:59.913Z,25.60
2018-07-28T04:40:32.895Z,26.60
2018-07-28T04:41:05.960Z,27.10
2018-07-28T04:41:39.135Z,27.40
2018-07-28T04:42:12.104Z,28.70
2018-07-28T04:42:45.176Z,28.90
2018-07-28T04:43:18.194Z,28.50
2018-07-28T04:43:51.158Z,28.30
2018-07-28T04:44:24.140Z,27.90
2018-07-28T04:44:57.141Z,27.50
2018-07-28T04:45:30.150Z,27.20
2018-07-28T04:46:03.245Z,26.80
2018-07-28T04:46:36.685Z,26.20
2018-07-28T04:47:09.699Z,27.60
2018-07-28T04:47:42.691Z,27.80
2018-07-28T04:48:15.713Z,27.80
2018-07-28T04:48:48.675Z,27.50
2018-07-28T04:49:21.663Z,25.30
2018-07-28T04:49:54.653Z,25.20
2018-07-28T04:50:27.627Z,27.80
2018-07-28T04:51:00.634Z,29.30
2018-07-28T04:51:33.944Z,28.70
2018-07-28T04:52:07.009Z,29.80
2018-07-28T04:52:40.065Z,29.60
2018-07-28T04:54:01.836Z,29.90
2018-07-28T04:54:34.917Z,31.70
2018-07-28T04:55:07.941Z,33.30
2018-07-28T04:55:40.967Z,33.50
2018-07-28T04:56:13.985Z,36.00
2018-07-28T04:56:47.089Z,37.20
2018-07-28T04:57:20.084Z,37.60
2018-07-28T04:57:53.149Z,36.50
2018-07-28T04:58:26.164Z,37.10
2018-07-28T04:58:59.150Z,36.50
2018-07-28T04:59:32.766Z,35.40
2018-07-28T05:00:05.917Z,34.60
2018-07-28T05:00:39.007Z,33.80
2018-07-28T05:01:12.047Z,33.20
2018-07-28T05:01:45.073Z,32.90
2018-07-28T05:02:18.055Z,31.70
2018-07-28T05:02:51.098Z,31.30
2018-07-28T05:03:24.086Z,30.90
2018-07-28T05:03:57.070Z,30.50
2018-07-28T05:04:30.189Z,30.30
2018-07-28T05:05:03.542Z,28.90
2018-07-28T05:05:36.593Z,28.60
2018-07-28T05:06:09.649Z,27.50
2018-07-28T05:06:42.641Z,27.00
2018-07-28T05:07:15.750Z,26.40
2018-07-28T05:07:48.689Z,26.60
2018-07-28T05:08:21.708Z,26.30
2018-07-28T05:08:54.734Z,25.80
2018-07-28T05:09:27.713Z,24.80
2018-07-28T05:10:00.729Z,24.10
2018-07-28T05:10:33.754Z,22.00
2018-07-28T05:11:06.819Z,22.60
2018-07-28T05:11:39.919Z,21.50
2018-07-28T05:12:12.895Z,22.00
2018-07-28T05:12:45.961Z,22.40
2018-07-28T05:13:18.973Z,22.60
2018-07-28T05:13:51.975Z,22.20
2018-07-28T05:14:25.570Z,22.30
2018-07-28T05:14:58.695Z,22.00
2018-07-28T05:15:31.718Z,21.90
2018-07-28T05:16:04.891Z,22.00
2018-07-28T05:16:37.849Z,21.80
2018-07-28T05:17:10.837Z,21.00
2018-07-28T05:17:43.829Z,20.40
2018-07-28T05:18:16.837Z,19.80
2018-07-28T05:18:49.901Z,19.50
2018-07-28T05:19:22.895Z,18.70
2018-07-28T05:19:55.907Z,18.30
2018-07-28T05:20:28.907Z,17.40
2018-07-28T05:21:01.909Z,16.70
2018-07-28T05:21:34.943Z,16.10
2018-07-28T05:22:07.935Z,16.10
2018-07-28T05:22:40.949Z,15.60
2018-07-28T05:23:13.958Z,15.50
2018-07-28T05:23:46.974Z,15.00
2018-07-28T05:24:19.943Z,14.40
2018-07-28T05:24:53.021Z,13.50
2018-07-28T05:25:26.069Z,12.60
2018-07-28T05:25:59.079Z,12.50
2018-07-28T05:26:32.071Z,12.30
2018-07-28T05:27:05.404Z,11.90
2018-07-28T05:27:38.457Z,11.20
2018-07-28T05:28:11.440Z,10.90
2018-07-28T05:28:44.465Z,11.40
2018-07-28T05:29:17.471Z,10.90
2018-07-28T05:29:50.473Z,10.90
2018-07-28T05:30:23.497Z,10.80
2018-07-28T05:30:56.487Z,11.10
2018-07-28T05:31:29.507Z,11.00
2018-07-28T05:32:02.501Z,11.40
2018-07-28T05:32:35.509Z,11.30
2018-07-28T05:33:08.561Z,8.80
2018-07-28T05:33:41.591Z,7.90
2018-07-28T05:34:14.625Z,9.50
2018-07-28T05:34:47.615Z,10.90
2018-07-28T05:35:20.633Z,12.30
2018-07-28T05:35:53.739Z,12.40
2018-07-28T05:36:26.767Z,11.50
2018-07-28T05:36:59.843Z,9.20
2018-07-28T05:37:32.821Z,9.40
2018-07-28T05:38:05.902Z,8.80
2018-07-28T05:38:38.859Z,8.10
2018-07-28T05:39:12.347Z,5.80
2018-07-28T05:39:45.318Z,7.40
2018-07-28T05:40:18.319Z,7.80
2018-07-28T05:40:51.287Z,9.00
2018-07-28T05:41:24.323Z,8.70
2018-07-28T05:42:48.163Z,6.80
2018-07-28T05:43:21.160Z,6.40
2018-07-28T05:43:54.153Z,6.40
2018-07-28T05:44:27.218Z,6.10
2018-07-28T05:45:00.293Z,6.30
2018-07-28T05:45:33.273Z,6.40
2018-07-28T05:46:06.329Z,5.90
2018-07-28T05:46:39.333Z,5.50
2018-07-28T05:47:12.327Z,5.20
2018-07-28T05:47:45.337Z,5.00
2018-07-28T05:49:47.955Z,5.00
2018-07-28T05:50:20.994Z,5.10
2018-07-28T05:50:54.012Z,5.20
2018-07-28T05:51:27.073Z,5.00
2018-07-28T05:52:00.104Z,5.00
2018-07-28T05:52:33.053Z,5.00
2018-07-28T05:53:06.467Z,5.00
2018-07-28T05:53:39.795Z,5.30
2018-07-28T05:54:12.859Z,5.40
2018-07-28T05:54:45.879Z,5.30
2018-07-28T05:55:18.877Z,5.20
2018-07-28T05:55:51.895Z,5.00
2018-07-28T05:56:24.919Z,5.00
2018-07-28T05:56:58.036Z,5.00
2018-07-28T05:57:31.093Z,5.00
2018-07-28T05:58:04.209Z,5.00
2018-07-28T05:58:37.245Z,5.00
2018-07-28T05:59:10.323Z,5.00
2018-07-28T05:59:43.357Z,5.00
2018-07-28T06:00:16.493Z,5.00
2018-07-28T06:00:49.518Z,5.00
2018-07-28T06:01:23.153Z,5.00
2018-07-28T06:01:56.153Z,5.00
2018-07-28T06:02:29.216Z,5.00
2018-07-28T06:03:06.374Z,5.00
2018-07-28T06:03:39.475Z,5.00
2018-07-28T06:04:12.449Z,5.00
2018-07-28T06:04:45.495Z,5.00
2018-07-28T06:05:18.543Z,5.00
2018-07-28T06:05:51.557Z,5.00
2018-07-28T06:06:24.583Z,5.00
2018-07-28T06:06:57.643Z,5.00
2018-07-28T06:07:30.649Z,5.00
2018-07-28T06:08:04.424Z,5.00
2018-07-28T06:08:37.443Z,5.00
2018-07-28T06:09:10.735Z,5.00
2018-07-28T06:09:43.753Z,5.00
2018-07-28T06:10:16.805Z,5.00
2018-07-28T06:10:49.866Z,5.00
2018-07-28T06:11:22.815Z,5.00
2018-07-28T06:11:55.855Z,5.90
2018-07-28T06:12:28.901Z,6.20
2018-07-28T06:13:01.949Z,6.50
2018-07-28T06:13:35.003Z,6.90
2018-07-28T06:14:08.096Z,7.00
2018-07-28T06:14:41.105Z,7.00
2018-07-28T06:15:14.145Z,7.20
2018-07-28T06:15:47.157Z,6.30
2018-07-28T06:16:20.185Z,6.10
2018-07-28T06:16:53.218Z,5.00
2018-07-28T06:17:26.219Z,5.00
2018-07-28T06:17:59.282Z,5.00
2018-07-28T06:18:32.372Z,5.00
2018-07-28T06:19:05.357Z,5.00
2018-07-28T06:19:38.335Z,5.00
2018-07-28T06:20:11.503Z,5.00
2018-07-28T06:20:44.481Z,5.00
2018-07-28T06:21:17.468Z,5.00
2018-07-28T06:21:50.484Z,5.00
2018-07-28T06:22:23.435Z,5.00
2018-07-28T06:22:56.440Z,5.00
2018-07-28T06:23:29.471Z,5.00
2018-07-28T06:24:02.496Z,5.00
2018-07-28T06:24:36.212Z,5.00
2018-07-28T06:25:09.363Z,5.00
2018-07-28T06:25:42.437Z,5.00
2018-07-28T06:26:15.432Z,5.00
2018-07-28T06:26:48.467Z,5.00
2018-07-28T06:27:21.505Z,5.00
2018-07-28T06:27:54.481Z,5.00
2018-07-28T06:28:27.463Z,5.00
2018-07-28T06:29:00.496Z,5.00
2018-07-28T06:29:33.534Z,5.00
2018-07-28T06:30:08.234Z,5.00
2018-07-28T06:30:41.227Z,5.00
2018-07-28T06:31:14.262Z,5.00
2018-07-28T06:31:47.282Z,5.00
2018-07-28T06:32:20.406Z,5.00
2018-07-28T06:32:53.456Z,5.00
2018-07-28T06:33:26.467Z,5.00
2018-07-28T06:33:59.448Z,5.00
2018-07-28T06:34:32.470Z,5.00
2018-07-28T06:35:05.504Z,5.00
2018-07-28T06:35:38.532Z,5.00
2018-07-28T06:36:11.498Z,5.00
2018-07-28T06:36:44.500Z,5.00
2018-07-28T06:37:17.478Z,5.00
2018-07-28T06:37:50.457Z,5.00
2018-07-28T06:38:23.483Z,5.00
2018-07-28T06:38:56.503Z,5.00
2018-07-28T06:39:29.497Z,5.00
2018-07-28T06:40:02.557Z,5.00
2018-07-28T06:40:35.590Z,5.00
2018-07-28T06:41:08.594Z,5.00
2018-07-28T06:41:41.627Z,5.00
2018-07-28T06:42:14.634Z,5.00
2018-07-28T06:42:47.680Z,5.00
2018-07-28T06:43:20.738Z,5.00
2018-07-28T06:43:53.755Z,5.00
2018-07-28T06:44:26.796Z,5.00
2018-07-28T06:44:59.792Z,5.00
2018-07-28T06:45:32.781Z,5.00
2018-07-28T06:46:05.803Z,5.00
2018-07-28T06:46:39.022Z,5.00
2018-07-28T06:47:11.991Z,5.00
2018-07-28T06:47:45.007Z,5.00
2018-07-28T06:48:18.917Z,5.00
2018-07-28T06:48:51.950Z,5.00
2018-07-28T06:49:24.923Z,5.00
2018-07-28T06:49:57.880Z,5.00
2018-07-28T06:50:30.898Z,5.00
2018-07-28T06:51:03.935Z,5.00
2018-07-28T06:51:36.955Z,5.00
2018-07-28T06:52:09.972Z,5.00
2018-07-28T06:52:42.961Z,5.00
2018-07-28T06:53:15.933Z,5.00
2018-07-28T06:53:49.596Z,5.00
2018-07-28T06:54:22.538Z,5.00
2018-07-28T06:54:55.528Z,5.00
2018-07-28T06:55:28.547Z,5.00
2018-07-28T06:56:01.563Z,5.00
2018-07-28T06:56:34.587Z,5.00
2018-07-28T06:57:07.602Z,5.00
2018-07-28T06:57:40.615Z,5.00
2018-07-28T06:58:13.648Z,5.00
2018-07-28T06:58:46.651Z,5.00
2018-07-28T06:59:19.626Z,5.00
2018-07-28T06:59:53.062Z,5.00
2018-07-28T07:00:26.156Z,5.00
2018-07-28T07:00:59.183Z,5.00
2018-07-28T07:01:32.215Z,5.00
2018-07-28T07:02:05.866Z,5.00
2018-07-28T07:02:38.830Z,5.00
2018-07-28T07:03:11.812Z,5.00
2018-07-28T07:03:44.815Z,5.00
2018-07-28T07:04:17.825Z,5.00
2018-07-28T07:04:50.862Z,5.00
2018-07-28T07:05:23.802Z,5.00
2018-07-28T07:05:56.773Z,5.00
2018-07-28T07:06:29.735Z,5.00
2018-07-28T07:07:02.775Z,5.00
2018-07-28T07:07:35.814Z,5.00
2018-07-28T07:08:08.794Z,5.00
2018-07-28T07:08:41.795Z,5.00
2018-07-28T07:09:14.762Z,5.00
2018-07-28T07:09:47.767Z,5.00
2018-07-28T07:10:20.756Z,5.00
2018-07-28T07:10:53.779Z,5.00
2018-07-28T07:11:27.214Z,5.00
2018-07-28T07:12:00.179Z,5.00
2018-07-28T07:12:33.155Z,5.00
2018-07-28T07:13:06.262Z,5.00
2018-07-28T07:13:39.357Z,5.00
2018-07-28T07:14:12.355Z,5.00
2018-07-28T07:14:45.350Z,5.00